createdAt,value
2022-08-19T00:00:03.519Z,14.15
2022-08-19T00:02:51.508Z,13.65
2022-08-19T00:05:39.753Z,13.78
2022-08-19T00:08:27.345Z,13.43
2022-08-19T00:11:18.601Z,14.38
2022-08-19T00:14:03.772Z,13.90
2022-08-19T00:16:53.162Z,13.50
2022-08-19T00:19:41.779Z,13.80
2022-08-19T00:22:29.527Z,13.65
2022-08-19T00:25:17.560Z,12.47
2022-08-19T00:28:05.847Z,14.10
2022-08-19T00:30:54.248Z,13.05
2022-08-19T00:33:41.800Z,12.60
2022-08-19T00:36:30.103Z,11.60
2022-08-19T00:39:19.425Z,11.90
2022-08-19T00:42:07.528Z,12.18
2022-08-19T00:44:55.009Z,11.28
2022-08-19T00:47:43.178Z,10.90
2022-08-19T00:50:31.097Z,11.63
2022-08-19T00:53:21.034Z,11.20
2022-08-19T00:56:09.896Z,10.90
2022-08-19T00:58:59.616Z,10.73
2022-08-19T01:01:48.525Z,11.23
2022-08-19T01:04:36.329Z,10.50
2022-08-19T01:07:23.647Z,10.25
2022-08-19T01:10:14.409Z,10.40
2022-08-19T01:13:02.457Z,10.95
2022-08-19T01:15:53.433Z,11.12
2022-08-19T01:18:43.545Z,10.08
2022-08-19T01:21:46.015Z,10.20
2022-08-19T01:24:33.640Z,10.88
2022-08-19T01:27:22.343Z,10.30
2022-08-19T01:30:11.192Z,10.25
2022-08-19T01:33:00.648Z,9.90
2022-08-19T01:35:50.664Z,10.20
2022-08-19T01:38:44.423Z,9.68
2022-08-19T01:41:28.832Z,10.48
2022-08-19T01:44:19.344Z,10.10
2022-08-19T01:47:07.744Z,9.85
2022-08-19T01:49:55.217Z,10.08
2022-08-19T01:52:45.186Z,9.63
2022-08-19T01:55:32.841Z,9.73
2022-08-19T01:58:26.208Z,9.55
2022-08-19T02:01:13.752Z,9.40
2022-08-19T02:04:01.927Z,9.28
2022-08-19T02:06:49.336Z,9.90
2022-08-19T02:09:37.386Z,8.88
2022-08-19T02:12:24.840Z,8.18
2022-08-19T02:15:12.635Z,9.43
2022-08-19T02:18:00.368Z,8.35
2022-08-19T02:20:50.953Z,8.85
2022-08-19T02:23:38.324Z,8.93
2022-08-19T02:26:27.703Z,9.50
2022-08-19T02:29:14.955Z,8.85
2022-08-19T02:32:02.105Z,9.35
2022-08-19T02:34:50.305Z,8.70
2022-08-19T02:37:55.904Z,9.25
2022-08-19T02:40:45.056Z,8.35
2022-08-19T02:43:35.952Z,9.35
2022-08-19T02:46:28.030Z,9.50
2022-08-19T02:49:17.033Z,9.58
2022-08-19T02:52:05.479Z,9.20
2022-08-19T02:54:53.008Z,8.25
2022-08-19T02:57:40.551Z,8.88
2022-08-19T03:00:28.672Z,8.95
2022-08-19T03:03:16.536Z,8.55
2022-08-19T03:06:13.895Z,8.68
2022-08-19T03:09:02.328Z,8.35
2022-08-19T03:11:52.630Z,8.90
2022-08-19T03:17:27.368Z,9.48
2022-08-19T03:20:14.744Z,9.23
2022-08-19T03:23:01.939Z,8.65
2022-08-19T03:25:58.169Z,9.15
2022-08-19T03:28:40.408Z,9.28
2022-08-19T03:31:43.770Z,9.05
2022-08-19T03:34:23.527Z,8.65
2022-08-19T03:37:14.456Z,9.08
2022-08-19T03:40:03.430Z,9.30
2022-08-19T03:42:51.088Z,9.58
2022-08-19T03:45:38.616Z,9.55
2022-08-19T03:48:26.682Z,10.20
2022-08-19T03:54:08.847Z,10.48
2022-08-19T03:56:57.585Z,9.98
2022-08-19T03:59:45.127Z,10.05
2022-08-19T04:02:32.689Z,10.88
2022-08-19T04:05:20.065Z,10.78
2022-08-19T04:08:13.367Z,9.85
2022-08-19T04:10:57.896Z,10.48
2022-08-19T04:13:45.887Z,10.48
2022-08-19T04:16:35.278Z,10.35
2022-08-19T04:19:24.081Z,10.00
2022-08-19T04:22:12.711Z,11.13
2022-08-19T04:25:00.225Z,10.10
2022-08-19T04:27:47.945Z,9.78
2022-08-19T04:30:40.311Z,9.65
2022-08-19T04:33:29.671Z,10.00
2022-08-19T04:36:22.559Z,9.75
2022-08-19T04:39:12.753Z,9.03
2022-08-19T04:42:17.344Z,10.15
2022-08-19T04:45:11.395Z,10.63
2022-08-19T04:48:26.508Z,10.23
2022-08-19T04:50:49.745Z,10.70
2022-08-19T04:53:38.799Z,10.68
2022-08-19T04:56:27.480Z,10.10
2022-08-19T04:59:15.816Z,9.50
2022-08-19T05:02:03.145Z,9.60
2022-08-19T05:04:50.824Z,9.33
2022-08-19T05:07:39.361Z,10.32
2022-08-19T05:10:27.119Z,10.00
2022-08-19T05:13:14.519Z,10.20
2022-08-19T05:16:01.927Z,9.80
2022-08-19T05:19:07.858Z,9.20
2022-08-19T05:22:13.863Z,9.83
2022-08-19T05:25:12.633Z,9.85
2022-08-19T05:27:50.448Z,8.65
2022-08-19T05:30:47.335Z,8.98
2022-08-19T05:33:27.400Z,9.38
2022-08-19T05:36:15.163Z,8.83
2022-08-19T05:39:03.264Z,9.30
2022-08-19T05:41:54.064Z,9.30
2022-08-19T05:44:45.272Z,9.00
2022-08-19T05:47:33.257Z,9.55
2022-08-19T05:50:20.895Z,9.08
2022-08-19T05:53:09.841Z,9.38
2022-08-19T05:55:56.912Z,9.00
2022-08-19T05:58:47.270Z,8.58
2022-08-19T06:01:34.600Z,8.68
2022-08-19T06:04:22.977Z,9.28
2022-08-19T06:07:12.289Z,8.45
2022-08-19T06:10:01.430Z,9.03
2022-08-19T06:12:49.291Z,9.20
2022-08-19T06:15:36.712Z,8.60
2022-08-19T06:18:24.418Z,8.20
2022-08-19T06:21:12.080Z,8.30
2022-08-19T06:23:59.842Z,8.43
2022-08-19T06:26:49.822Z,7.70
2022-08-19T06:29:37.448Z,8.45
2022-08-19T06:32:24.824Z,8.48
2022-08-19T06:35:12.401Z,8.45
2022-08-19T06:38:00.385Z,8.38
2022-08-19T06:40:47.796Z,7.90
2022-08-19T06:43:35.243Z,8.68
2022-08-19T06:46:24.807Z,8.50
2022-08-19T06:49:14.512Z,8.45
2022-08-19T06:52:02.385Z,8.13
2022-08-19T06:54:55.906Z,8.50
2022-08-19T06:57:38.552Z,8.08
2022-08-19T07:00:26.088Z,7.83
2022-08-19T07:03:14.052Z,8.45
2022-08-19T07:06:21.269Z,8.08
2022-08-19T07:09:00.288Z,8.30
2022-08-19T07:11:50.965Z,8.68
2022-08-19T07:14:39.842Z,8.25
2022-08-19T07:17:27.912Z,8.03
2022-08-19T07:20:15.539Z,7.53
2022-08-19T07:23:07.221Z,7.90
2022-08-19T07:25:53.692Z,8.13
2022-08-19T07:28:51.344Z,8.35
2022-08-19T07:31:31.172Z,7.60
2022-08-19T07:34:20.160Z,8.00
2022-08-19T07:37:08.873Z,7.50
2022-08-19T07:39:56.730Z,7.53
2022-08-19T07:42:45.232Z,7.53
2022-08-19T07:45:33.465Z,7.33
2022-08-19T07:48:23.011Z,7.08
2022-08-19T07:51:11.937Z,7.45
2022-08-19T07:54:01.365Z,6.87
2022-08-19T07:56:48.609Z,7.20
2022-08-19T07:59:38.232Z,7.12
2022-08-19T08:02:25.728Z,7.10
2022-08-19T08:05:33.966Z,6.80
2022-08-19T08:08:27.594Z,7.30
2022-08-19T08:11:15.770Z,7.37
2022-08-19T08:16:53.400Z,7.83
2022-08-19T08:19:43.416Z,7.55
2022-08-19T08:22:48.899Z,7.17
2022-08-19T08:25:38.944Z,7.25
2022-08-19T08:28:29.805Z,7.00
2022-08-19T08:31:16.680Z,7.72
2022-08-19T08:34:04.192Z,6.90
2022-08-19T08:36:52.944Z,6.85
2022-08-19T08:39:40.415Z,7.12
2022-08-19T08:42:33.360Z,7.00
2022-08-19T08:45:20.858Z,7.75
2022-08-19T08:48:22.386Z,7.30
2022-08-19T08:51:02.200Z,7.62
2022-08-19T08:56:44.160Z,7.60
2022-08-19T08:59:34.281Z,6.65
2022-08-19T09:02:21.554Z,7.00
2022-08-19T09:05:11.024Z,7.25
2022-08-19T09:08:03.728Z,7.12
2022-08-19T09:10:56.063Z,7.85
2022-08-19T09:14:06.004Z,7.25
2022-08-19T09:16:53.521Z,7.70
2022-08-19T09:19:58.497Z,7.37
2022-08-19T09:22:46.408Z,7.55
2022-08-19T09:25:35.603Z,7.90
2022-08-19T09:28:26.949Z,7.05
2022-08-19T09:31:20.528Z,7.05
2022-08-19T09:34:07.736Z,7.30
2022-08-19T09:36:58.665Z,6.70
2022-08-19T09:39:45.884Z,7.30
2022-08-19T09:42:35.280Z,6.78
2022-08-19T09:45:24.112Z,7.67
2022-08-19T09:48:11.687Z,7.55
2022-08-19T09:51:08.703Z,7.65
2022-08-19T09:54:00.952Z,7.92
2022-08-19T09:56:50.240Z,7.25
2022-08-19T09:59:37.560Z,7.37
2022-08-19T10:02:25.976Z,6.60
2022-08-19T10:08:22.776Z,8.10
2022-08-19T10:11:28.575Z,7.58
2022-08-19T10:14:01.648Z,7.40
2022-08-19T10:16:50.391Z,7.25
2022-08-19T10:19:37.727Z,7.85
2022-08-19T10:22:26.202Z,7.42
2022-08-19T10:25:15.111Z,7.30
2022-08-19T10:28:02.967Z,8.10
2022-08-19T10:30:50.408Z,7.85
2022-08-19T10:33:53.350Z,7.33
2022-08-19T10:36:33.977Z,7.35
2022-08-19T10:39:22.844Z,7.72
2022-08-19T10:42:12.969Z,7.30
2022-08-19T10:45:01.153Z,7.10
2022-08-19T10:47:48.826Z,7.78
2022-08-19T10:50:53.948Z,7.92
2022-08-19T10:53:41.568Z,7.65
2022-08-19T10:56:47.711Z,7.72
2022-08-19T10:59:36.568Z,7.33
2022-08-19T11:02:25.032Z,7.67
2022-08-19T11:05:13.696Z,7.50
2022-08-19T11:08:01.615Z,8.33
2022-08-19T11:10:51.199Z,7.37
2022-08-19T11:13:42.055Z,7.75
2022-08-19T11:16:30.887Z,8.00
2022-08-19T11:19:20.304Z,7.67
2022-08-19T11:22:10.504Z,7.58
2022-08-19T11:24:59.879Z,7.92
2022-08-19T11:27:47.935Z,7.60
2022-08-19T11:30:35.544Z,7.60
2022-08-19T11:33:23.313Z,6.55
2022-08-19T11:36:11.159Z,6.97
2022-08-19T11:39:01.216Z,7.65
2022-08-19T11:41:48.849Z,7.67
2022-08-19T11:44:36.963Z,7.33
2022-08-19T11:47:25.231Z,7.25
2022-08-19T11:50:12.288Z,7.00
2022-08-19T11:52:59.936Z,7.53
2022-08-19T11:55:47.112Z,6.92
2022-08-19T11:58:35.824Z,7.10
2022-08-19T12:01:25.232Z,6.90
2022-08-19T12:04:12.864Z,6.78
2022-08-19T12:07:00.121Z,6.83
2022-08-19T12:09:48.664Z,7.08
2022-08-19T12:12:38.272Z,7.03
2022-08-19T12:15:25.863Z,7.50
2022-08-19T12:18:14.943Z,6.80
2022-08-19T12:21:02.506Z,7.00
2022-08-19T12:23:55.507Z,6.72
2022-08-19T12:26:53.346Z,7.17
2022-08-19T12:29:30.858Z,6.97
2022-08-19T12:32:18.544Z,6.75
2022-08-19T12:35:06.405Z,7.03
2022-08-19T12:37:57.343Z,6.75
2022-08-19T12:40:45.632Z,6.90
2022-08-19T12:43:33.095Z,6.28
2022-08-19T12:46:22.263Z,6.92
2022-08-19T12:49:16.791Z,6.75
2022-08-19T12:52:00.081Z,6.62
2022-08-19T12:54:48.015Z,7.00
2022-08-19T12:57:37.937Z,6.95
2022-08-19T13:00:25.306Z,6.50
2022-08-19T13:03:12.642Z,6.45
2022-08-19T13:05:59.895Z,6.78
2022-08-19T13:08:47.368Z,6.90
2022-08-19T13:11:34.920Z,6.50
2022-08-19T13:14:22.248Z,6.50
2022-08-19T13:17:09.892Z,6.70
2022-08-19T13:19:57.904Z,6.47
2022-08-19T13:22:46.183Z,6.87
2022-08-19T13:25:34.290Z,6.05
2022-08-19T13:28:22.233Z,6.40
2022-08-19T13:31:28.985Z,6.17
2022-08-19T13:34:17.536Z,6.20
2022-08-19T13:37:06.431Z,5.78
2022-08-19T13:39:54.157Z,5.75
2022-08-19T13:42:42.096Z,5.12
2022-08-19T13:45:33.361Z,5.85
2022-08-19T13:48:20.720Z,5.40
2022-08-19T13:51:10.049Z,5.90
2022-08-19T13:53:57.745Z,5.05
2022-08-19T13:56:46.671Z,5.20
2022-08-19T13:59:34.304Z,5.45
2022-08-19T14:02:21.888Z,5.40
2022-08-19T14:05:11.064Z,5.08
2022-08-19T14:07:59.464Z,5.28
2022-08-19T14:10:47.064Z,4.80
2022-08-19T14:13:35.128Z,5.05
2022-08-19T14:16:23.018Z,5.80
2022-08-19T14:19:10.320Z,5.08
2022-08-19T14:21:58.756Z,5.25
2022-08-19T14:24:47.914Z,5.20
2022-08-19T14:27:36.626Z,5.20
2022-08-19T14:30:32.728Z,5.40
2022-08-19T14:33:20.048Z,4.80
2022-08-19T14:36:08.144Z,5.22
2022-08-19T14:38:55.799Z,4.45
2022-08-19T14:41:43.871Z,4.60
2022-08-19T14:44:32.889Z,4.85
2022-08-19T14:47:20.744Z,5.53
2022-08-19T14:50:17.856Z,4.78
2022-08-19T14:53:11.981Z,5.03
2022-08-19T14:55:56.034Z,4.87
2022-08-19T14:58:44.955Z,5.22
2022-08-19T15:01:32.883Z,7.42
2022-08-19T15:04:20.114Z,6.33
2022-08-19T15:07:08.413Z,6.80
2022-08-19T15:09:56.039Z,5.83
2022-08-19T15:12:45.150Z,8.75
2022-08-19T15:15:33.176Z,5.30
2022-08-19T15:18:21.517Z,4.90
2022-08-19T15:21:09.080Z,6.10
2022-08-19T15:23:58.448Z,5.50
2022-08-19T15:26:45.624Z,5.58
2022-08-19T15:29:33.280Z,5.30
2022-08-19T15:32:20.937Z,5.83
2022-08-19T15:35:09.601Z,5.37
2022-08-19T15:37:57.726Z,6.90
2022-08-19T15:40:45.887Z,5.47
2022-08-19T15:43:33.074Z,6.65
2022-08-19T15:46:23.810Z,5.90
2022-08-19T15:49:12.576Z,4.95
2022-08-19T15:52:01.744Z,5.00
2022-08-19T15:57:53.824Z,6.00
2022-08-19T16:00:59.513Z,5.22
2022-08-19T16:04:11.021Z,5.97
2022-08-19T16:06:58.939Z,4.97
2022-08-19T16:09:46.042Z,5.17
2022-08-19T16:12:33.904Z,5.50
2022-08-19T16:15:21.569Z,5.22
2022-08-19T16:18:09.320Z,5.60
2022-08-19T16:20:56.944Z,5.97
2022-08-19T16:23:47.133Z,5.05
2022-08-19T16:26:35.697Z,5.72
2022-08-19T16:29:34.892Z,5.30
2022-08-19T16:32:14.177Z,5.72
2022-08-19T16:35:06.647Z,5.80
2022-08-19T16:37:54.123Z,5.72
2022-08-19T16:40:45.014Z,5.80
2022-08-19T16:43:31.672Z,5.80
2022-08-19T16:46:19.632Z,6.15
2022-08-19T16:49:10.736Z,6.12
2022-08-19T16:54:45.463Z,6.28
2022-08-19T16:57:33.417Z,6.28
2022-08-19T17:00:21.432Z,6.50
2022-08-19T17:03:14.624Z,6.78
2022-08-19T17:06:03.973Z,6.60
2022-08-19T17:08:53.305Z,6.45
2022-08-19T17:11:40.687Z,6.53
2022-08-19T17:14:28.137Z,7.00
2022-08-19T17:17:16.153Z,6.33
2022-08-19T17:20:06.056Z,6.00
2022-08-19T17:22:53.447Z,6.30
2022-08-19T17:25:40.890Z,6.50
2022-08-19T17:28:30.513Z,6.45
2022-08-19T17:31:19.187Z,6.15
2022-08-19T17:34:06.629Z,6.33
2022-08-19T17:36:57.234Z,6.03
2022-08-19T17:39:44.749Z,5.65
2022-08-19T17:42:32.611Z,6.70
2022-08-19T17:45:20.801Z,6.10
2022-08-19T17:48:08.857Z,6.50
2022-08-19T17:50:56.233Z,6.00
2022-08-19T17:53:45.656Z,7.27
2022-08-19T17:56:33.563Z,6.00
2022-08-19T17:59:20.968Z,6.37
2022-08-19T18:02:11.287Z,6.15
2022-08-19T18:04:59.433Z,6.72
2022-08-19T18:07:49.264Z,7.22
2022-08-19T18:10:38.161Z,7.15
2022-08-19T18:13:25.817Z,7.35
2022-08-19T18:16:13.601Z,6.85
2022-08-19T18:19:01.293Z,6.12
2022-08-19T18:21:49.152Z,6.03
2022-08-19T18:24:41.838Z,6.00
2022-08-19T18:27:29.427Z,6.67
2022-08-19T18:30:17.762Z,6.85
2022-08-19T18:33:09.520Z,7.55
2022-08-19T18:35:56.832Z,7.58
2022-08-19T18:39:06.810Z,7.50
2022-08-19T18:42:09.904Z,7.40
2022-08-19T18:45:15.560Z,7.47
2022-08-19T18:48:27.691Z,8.90
2022-08-19T18:51:11.264Z,8.58
2022-08-19T18:53:59.952Z,8.88
2022-08-19T18:56:49.082Z,8.05
2022-08-19T18:59:37.754Z,8.85
2022-08-19T19:02:28.297Z,9.88
2022-08-19T19:05:16.840Z,10.20
2022-08-19T19:08:04.776Z,10.03
2022-08-19T19:10:55.367Z,11.55
2022-08-19T19:13:48.530Z,11.97
2022-08-19T19:16:36.288Z,12.68
2022-08-19T19:19:24.747Z,10.75
2022-08-19T19:22:20.513Z,9.53
2022-08-19T19:25:12.160Z,9.48
2022-08-19T19:28:00.018Z,8.85
2022-08-19T19:30:47.248Z,9.78
2022-08-19T19:33:35.544Z,10.13
2022-08-19T19:36:25.466Z,10.23
2022-08-19T19:39:12.852Z,10.97
2022-08-19T19:42:03.197Z,12.13
2022-08-19T19:44:53.969Z,11.43
2022-08-19T19:47:44.216Z,10.88
2022-08-19T19:50:31.632Z,10.32
2022-08-19T19:53:19.490Z,11.00
2022-08-19T19:56:07.640Z,11.30
2022-08-19T19:58:55.659Z,12.45
2022-08-19T20:01:44.918Z,12.13
2022-08-19T20:04:33.073Z,12.35
2022-08-19T20:07:23.177Z,12.10
2022-08-19T20:10:10.729Z,12.82
2022-08-19T20:12:58.255Z,15.20
2022-08-19T20:15:45.993Z,14.20
2022-08-19T20:18:34.209Z,12.37
2022-08-19T20:21:22.641Z,12.15
2022-08-19T20:24:14.057Z,11.90
2022-08-19T20:27:05.090Z,11.38
2022-08-19T20:29:52.824Z,12.15
2022-08-19T20:32:42.912Z,12.05
2022-08-19T20:35:33.161Z,11.30
2022-08-19T20:38:22.961Z,11.05
2022-08-19T20:41:11.608Z,10.98
2022-08-19T20:44:04.136Z,11.57
2022-08-19T20:46:55.622Z,11.60
2022-08-19T20:49:41.088Z,12.23
2022-08-19T20:52:28.961Z,12.65
2022-08-19T20:55:16.296Z,12.23
2022-08-19T20:58:05.912Z,12.73
2022-08-19T21:00:57.209Z,13.38
2022-08-19T21:03:44.856Z,17.55
2022-08-19T21:06:32.625Z,16.15
2022-08-19T21:09:20.010Z,16.23
2022-08-19T21:12:08.770Z,20.92
2022-08-19T21:14:56.280Z,20.92
2022-08-19T21:17:43.841Z,17.57
2022-08-19T21:20:31.425Z,13.20
2022-08-19T21:23:22.498Z,12.65
2022-08-19T21:26:10.017Z,12.60
2022-08-19T21:28:57.920Z,12.82
2022-08-19T21:31:45.361Z,12.05
2022-08-19T21:34:33.009Z,11.83
2022-08-19T21:37:25.205Z,12.90
2022-08-19T21:40:10.787Z,13.05
2022-08-19T21:42:58.235Z,12.85
2022-08-19T21:45:47.636Z,14.78
2022-08-19T21:48:35.377Z,13.38
2022-08-19T21:51:22.656Z,10.58
2022-08-19T21:54:14.186Z,10.68
2022-08-19T21:57:00.060Z,9.03
2022-08-19T21:59:48.008Z,10.30
2022-08-19T22:02:35.555Z,9.93
2022-08-19T22:05:24.658Z,9.03
2022-08-19T22:08:14.528Z,10.90
2022-08-19T22:11:04.409Z,9.40
2022-08-19T22:13:53.684Z,9.90
2022-08-19T22:16:41.161Z,9.67
2022-08-19T22:19:29.386Z,9.60
2022-08-19T22:22:24.941Z,9.30
2022-08-19T22:25:31.134Z,9.48
2022-08-19T22:28:08.273Z,8.53
2022-08-19T22:30:57.783Z,9.28
2022-08-19T22:33:45.399Z,9.50
2022-08-19T22:36:33.360Z,10.72
2022-08-19T22:39:21.249Z,10.72
2022-08-19T22:42:08.757Z,10.53
2022-08-19T22:44:59.065Z,9.80
2022-08-19T22:47:46.416Z,9.45
2022-08-19T22:50:35.040Z,10.55
2022-08-19T22:53:22.202Z,10.70
2022-08-19T22:56:15.170Z,10.98
2022-08-19T22:59:00.976Z,10.68
2022-08-19T23:01:48.610Z,10.43
2022-08-19T23:04:36.892Z,10.58
2022-08-19T23:07:24.691Z,10.80
2022-08-19T23:10:12.410Z,13.20
2022-08-19T23:13:00.562Z,13.50
2022-08-19T23:15:48.629Z,14.75
2022-08-19T23:18:35.953Z,16.75
2022-08-19T23:21:26.680Z,17.12
2022-08-19T23:24:14.296Z,15.23
2022-08-19T23:27:19.595Z,13.78
2022-08-19T23:30:25.576Z,13.10
2022-08-19T23:33:36.233Z,12.75
2022-08-19T23:36:20.072Z,11.53
2022-08-19T23:39:07.649Z,12.07
2022-08-19T23:41:55.801Z,13.32
2022-08-19T23:44:51.884Z,12.47
2022-08-19T23:47:34.721Z,11.13
2022-08-19T23:50:22.584Z,11.35
2022-08-19T23:53:13.295Z,11.43
2022-08-19T23:55:59.664Z,10.80
2022-08-19T23:58:49.241Z,11.38
